createdAt,value
2018-12-18T00:00:36.883Z,-0.80
2018-12-18T00:03:04.491Z,-1.00
2018-12-18T00:05:35.136Z,-1.00
2018-12-18T00:08:03.015Z,-1.10
2018-12-18T00:10:36.296Z,-1.00
2018-12-18T00:13:03.838Z,-1.00
2018-12-18T00:15:31.383Z,-1.00
2018-12-18T00:17:58.971Z,-1.00
2018-12-18T00:20:26.517Z,-1.10
2018-12-18T00:22:54.289Z,-1.00
2018-12-18T00:25:21.971Z,-1.00
2018-12-18T00:27:49.570Z,-1.00
2018-12-18T00:30:17.148Z,-1.00
2018-12-18T00:32:45.186Z,-1.00
2018-12-18T00:35:12.824Z,-1.10
2018-12-18T00:37:40.442Z,-1.10
2018-12-18T00:40:08.305Z,-1.00
2018-12-18T00:42:35.853Z,-1.00
2018-12-18T00:45:03.954Z,-0.90
2018-12-18T00:47:31.546Z,-1.00
2018-12-18T00:49:59.096Z,-1.10
2018-12-18T00:52:26.809Z,-1.00
2018-12-18T00:54:54.393Z,-1.00
2018-12-18T00:57:21.931Z,-0.90
2018-12-18T00:59:49.465Z,-0.90
2018-12-18T01:02:17.046Z,-1.00
2018-12-18T01:04:45.592Z,-0.90
2018-12-18T01:07:14.342Z,-0.80
2018-12-18T01:09:42.367Z,-0.80
2018-12-18T01:12:09.903Z,-0.80
2018-12-18T01:14:37.593Z,-0.90
2018-12-18T01:17:05.346Z,-1.00
2018-12-18T01:19:32.918Z,-1.00
2018-12-18T01:22:00.457Z,-1.00
2018-12-18T01:24:28.049Z,-1.00
2018-12-18T01:26:55.591Z,-1.00
2018-12-18T01:29:23.127Z,-1.00
2018-12-18T01:31:50.713Z,-1.00
2018-12-18T01:34:18.581Z,-1.10
2018-12-18T01:36:46.387Z,-1.10
2018-12-18T01:39:13.968Z,-1.00
2018-12-18T01:41:41.914Z,-1.00
2018-12-18T01:44:09.454Z,-1.00
2018-12-18T01:46:37.265Z,-0.90
2018-12-18T01:49:04.901Z,-0.90
2018-12-18T01:51:32.542Z,-1.00
2018-12-18T01:54:00.450Z,-1.00
2018-12-18T01:56:28.261Z,-1.00
2018-12-18T01:58:55.806Z,-1.00
2018-12-18T02:01:23.431Z,-1.00
2018-12-18T02:03:50.982Z,-1.00
2018-12-18T02:06:18.786Z,-1.00
2018-12-18T02:08:46.366Z,-1.00
2018-12-18T02:11:14.018Z,-1.00
2018-12-18T02:13:41.886Z,-1.00
2018-12-18T02:16:10.132Z,-1.00
2018-12-18T02:18:37.662Z,-1.00
2018-12-18T02:21:05.255Z,-1.00
2018-12-18T02:23:32.835Z,-1.10
2018-12-18T02:26:00.378Z,-1.20
2018-12-18T02:28:27.926Z,-1.20
2018-12-18T02:30:55.494Z,-1.10
2018-12-18T02:33:23.033Z,-1.00
2018-12-18T02:35:50.832Z,-1.00
2018-12-18T02:38:18.414Z,-1.00
2018-12-18T02:40:45.975Z,-1.10
2018-12-18T02:43:13.514Z,-1.20
2018-12-18T02:45:41.089Z,-1.20
2018-12-18T02:48:08.751Z,-1.10
2018-12-18T02:50:36.292Z,-1.00
2018-12-18T02:53:03.872Z,-0.90
2018-12-18T02:55:31.408Z,-0.90
2018-12-18T02:57:58.952Z,-0.90
2018-12-18T03:00:26.538Z,-0.90
2018-12-18T03:02:54.103Z,-1.00
2018-12-18T03:05:21.639Z,-1.00
2018-12-18T03:07:49.402Z,-1.00
2018-12-18T03:10:16.968Z,-1.00
2018-12-18T03:12:45.064Z,-1.00
2018-12-18T03:15:12.868Z,-1.00
2018-12-18T03:17:40.627Z,-1.00
2018-12-18T03:20:08.173Z,-0.90
2018-12-18T03:22:35.763Z,-1.00
2018-12-18T03:25:03.670Z,-1.00
2018-12-18T03:27:31.215Z,-1.00
2018-12-18T03:29:58.799Z,-1.00
2018-12-18T03:32:27.156Z,-0.90
2018-12-18T03:34:54.867Z,-0.90
2018-12-18T03:37:22.456Z,-0.90
2018-12-18T03:39:49.995Z,-0.90
2018-12-18T03:42:17.535Z,-0.90
2018-12-18T03:44:45.111Z,-0.90
2018-12-18T03:47:12.658Z,-1.10
2018-12-18T03:49:40.253Z,-1.00
2018-12-18T03:52:07.839Z,-1.00
2018-12-18T03:54:35.382Z,-1.00
2018-12-18T03:57:02.918Z,-0.90
2018-12-18T03:59:30.496Z,-1.00
2018-12-18T04:01:58.034Z,-1.00
2018-12-18T04:04:25.578Z,-1.00
2018-12-18T04:06:53.461Z,-0.90
2018-12-18T04:09:21.141Z,-0.90
2018-12-18T04:14:52.673Z,-0.90
2018-12-18T04:17:20.410Z,-1.00
2018-12-18T04:19:48.417Z,-1.00
2018-12-18T04:22:16.065Z,-1.00
2018-12-18T04:24:43.642Z,-0.90
2018-12-18T04:27:11.187Z,-0.90
2018-12-18T04:29:38.755Z,-1.00
2018-12-18T04:32:06.334Z,-1.00
2018-12-18T04:34:33.947Z,-1.10
2018-12-18T04:37:01.492Z,-1.00
2018-12-18T04:39:29.266Z,-1.00
2018-12-18T04:41:56.817Z,-1.00
2018-12-18T04:44:24.411Z,-1.00
2018-12-18T04:46:51.999Z,-1.00
2018-12-18T04:49:19.539Z,-1.00
2018-12-18T04:51:47.075Z,-1.00
2018-12-18T04:54:14.682Z,-1.00
2018-12-18T04:56:42.302Z,-1.00
2018-12-18T04:59:09.848Z,-1.10
2018-12-18T05:01:37.447Z,-1.10
2018-12-18T05:04:04.986Z,-1.00
2018-12-18T05:06:32.539Z,-1.00
2018-12-18T05:09:00.125Z,-1.00
2018-12-18T05:11:27.738Z,-1.00
2018-12-18T05:13:55.303Z,-1.00
2018-12-18T05:16:23.031Z,-1.00
2018-12-18T05:18:50.840Z,-1.00
2018-12-18T05:21:18.706Z,-1.00
2018-12-18T05:23:46.571Z,-1.10
2018-12-18T05:26:14.110Z,-1.00
2018-12-18T05:28:41.867Z,-1.00
2018-12-18T05:31:09.484Z,-1.00
2018-12-18T05:33:37.049Z,-1.00
2018-12-18T05:36:04.602Z,-0.90
2018-12-18T05:38:32.206Z,-0.90
2018-12-18T05:41:00.000Z,-0.90
2018-12-18T05:43:28.577Z,-0.90
2018-12-18T05:45:56.410Z,-1.00
2018-12-18T05:48:23.953Z,-0.90
2018-12-18T05:50:51.747Z,-0.90
2018-12-18T05:53:19.400Z,-1.00
2018-12-18T05:55:47.190Z,-1.00
2018-12-18T05:58:14.805Z,-1.10
2018-12-18T06:00:42.427Z,-1.00
2018-12-18T06:03:09.973Z,-0.90
2018-12-18T06:05:37.523Z,-1.00
2018-12-18T06:08:05.266Z,-1.10
2018-12-18T06:10:32.910Z,-1.10
2018-12-18T06:13:00.471Z,-1.20
2018-12-18T06:15:28.091Z,-1.20
2018-12-18T06:17:55.931Z,-1.10
2018-12-18T06:20:23.494Z,-1.10
2018-12-18T06:22:51.325Z,-1.10
2018-12-18T06:25:18.916Z,-1.10
2018-12-18T06:27:46.483Z,-1.10
2018-12-18T06:30:14.842Z,-1.10
2018-12-18T06:32:42.386Z,-1.10
2018-12-18T06:35:10.469Z,-1.20
2018-12-18T06:37:38.461Z,-1.20
2018-12-18T06:40:06.621Z,-1.20
2018-12-18T06:42:34.351Z,-1.20
2018-12-18T06:45:01.926Z,-1.20
2018-12-18T06:47:29.484Z,-1.10
2018-12-18T06:49:57.032Z,-1.10
2018-12-18T06:52:24.698Z,-1.10
2018-12-18T06:54:52.453Z,-1.00
2018-12-18T06:57:20.006Z,-1.00
2018-12-18T06:59:47.997Z,-1.00
2018-12-18T07:02:15.549Z,-0.90
2018-12-18T07:04:43.161Z,-1.00
2018-12-18T07:07:10.828Z,-1.10
2018-12-18T07:09:38.371Z,-1.00
2018-12-18T07:12:05.975Z,-1.00
2018-12-18T07:14:33.612Z,-1.00
2018-12-18T07:17:01.418Z,-1.00
2018-12-18T07:19:29.090Z,-1.10
2018-12-18T07:21:56.664Z,-0.90
2018-12-18T07:24:24.386Z,-0.70
2018-12-18T07:26:52.031Z,-0.60
2018-12-18T07:29:19.624Z,-0.60
2018-12-18T07:31:47.424Z,-0.60
2018-12-18T07:34:14.975Z,-0.50
2018-12-18T07:36:42.622Z,-0.50
2018-12-18T07:39:10.267Z,-0.50
2018-12-18T07:41:37.818Z,-0.50
2018-12-18T07:44:06.762Z,-0.40
2018-12-18T07:46:34.442Z,-0.50
2018-12-18T07:49:01.988Z,-0.50
2018-12-18T07:51:29.882Z,-0.50
2018-12-18T07:53:57.436Z,-0.50
2018-12-18T07:56:25.218Z,-0.40
2018-12-18T07:58:52.843Z,-0.40
2018-12-18T08:01:20.399Z,-0.20
2018-12-18T08:03:47.975Z,-0.10
2018-12-18T08:06:15.559Z,0.00
2018-12-18T08:08:43.339Z,0.10
2018-12-18T08:11:11.188Z,0.10
2018-12-18T08:13:38.778Z,0.10
2018-12-18T08:16:06.488Z,0.10
2018-12-18T08:18:34.037Z,0.10
2018-12-18T08:21:02.059Z,0.10
2018-12-18T08:23:29.668Z,0.20
2018-12-18T08:25:57.211Z,0.20
2018-12-18T08:28:25.067Z,0.20
2018-12-18T08:30:52.645Z,0.20
2018-12-18T08:33:20.206Z,0.40
2018-12-18T08:35:47.833Z,0.40
2018-12-18T08:38:15.615Z,0.60
2018-12-18T08:40:43.162Z,0.60
2018-12-18T08:43:10.973Z,0.50
2018-12-18T08:45:38.519Z,0.50
2018-12-18T08:48:06.070Z,0.80
2018-12-18T08:50:33.656Z,0.90
2018-12-18T08:53:01.395Z,0.80
2018-12-18T08:55:29.280Z,0.70
2018-12-18T08:57:57.219Z,0.90
2018-12-18T09:00:24.762Z,1.10
2018-12-18T09:02:52.315Z,1.10
2018-12-18T09:05:20.230Z,1.20
2018-12-18T09:07:48.023Z,1.10
2018-12-18T09:10:15.896Z,0.90
2018-12-18T09:12:43.757Z,1.00
2018-12-18T09:15:17.066Z,1.20
2018-12-18T09:17:46.744Z,1.40
2018-12-18T09:20:14.826Z,1.10
2018-12-18T09:22:42.674Z,0.80
2018-12-18T09:25:10.260Z,0.90
2018-12-18T09:27:37.903Z,0.80
2018-12-18T09:30:08.552Z,1.20
2018-12-18T09:32:36.350Z,1.50
2018-12-18T09:35:04.795Z,1.50
2018-12-18T09:37:32.335Z,1.20
2018-12-18T09:39:59.966Z,1.20
2018-12-18T09:42:33.441Z,1.20
2018-12-18T09:45:01.380Z,1.30
2018-12-18T09:47:29.169Z,1.20
2018-12-18T09:49:56.716Z,1.30
2018-12-18T09:52:24.555Z,1.50
2018-12-18T09:54:52.254Z,1.50
2018-12-18T09:57:25.561Z,1.80
2018-12-18T09:59:53.347Z,1.80
2018-12-18T10:02:21.079Z,1.90
2018-12-18T10:04:48.650Z,2.00
2018-12-18T10:07:16.395Z,1.90
2018-12-18T10:09:44.065Z,1.90
2018-12-18T10:12:11.818Z,1.70
2018-12-18T10:14:39.583Z,1.60
2018-12-18T10:17:07.177Z,1.70
2018-12-18T10:19:34.826Z,2.00
2018-12-18T10:22:02.386Z,1.70
2018-12-18T10:24:30.260Z,1.70
2018-12-18T10:26:58.023Z,1.90
2018-12-18T10:29:25.602Z,1.80
2018-12-18T10:31:53.203Z,1.90
2018-12-18T10:34:20.950Z,1.90
2018-12-18T10:36:48.487Z,2.10
2018-12-18T10:39:16.420Z,1.80
2018-12-18T10:41:44.084Z,2.00
2018-12-18T10:44:11.945Z,2.10
2018-12-18T10:46:39.492Z,2.00
2018-12-18T10:49:07.087Z,2.10
2018-12-18T10:51:34.630Z,2.20
2018-12-18T10:54:02.170Z,2.50
2018-12-18T10:56:29.743Z,2.80
2018-12-18T10:58:57.535Z,3.20
2018-12-18T11:01:31.328Z,3.30
2018-12-18T11:03:59.168Z,3.50
2018-12-18T11:06:27.141Z,3.60
2018-12-18T11:08:54.902Z,3.60
2018-12-18T11:11:22.487Z,3.40
2018-12-18T11:13:51.046Z,3.00
2018-12-18T11:16:19.152Z,2.90
2018-12-18T11:18:47.009Z,2.80
2018-12-18T11:21:14.549Z,2.80
2018-12-18T11:23:42.311Z,2.90
2018-12-18T11:26:09.957Z,2.60
2018-12-18T11:28:37.502Z,2.80
2018-12-18T11:31:05.323Z,2.90
2018-12-18T11:33:32.872Z,2.80
2018-12-18T11:36:00.423Z,2.60
2018-12-18T11:38:27.995Z,2.50
2018-12-18T11:40:55.922Z,2.50
2018-12-18T11:43:23.455Z,2.50
2018-12-18T11:45:51.512Z,2.70
2018-12-18T11:48:19.273Z,2.60
2018-12-18T11:50:46.811Z,2.50
2018-12-18T11:53:14.634Z,2.30
2018-12-18T11:55:42.527Z,2.30
2018-12-18T11:58:10.063Z,2.20
2018-12-18T12:00:38.560Z,2.30
2018-12-18T12:03:06.435Z,2.40
2018-12-18T12:05:34.201Z,2.40
2018-12-18T12:08:01.769Z,2.50
2018-12-18T12:10:29.330Z,2.40
2018-12-18T12:12:57.335Z,2.30
2018-12-18T12:15:25.110Z,2.40
2018-12-18T12:17:53.291Z,2.50
2018-12-18T12:20:20.966Z,2.80
2018-12-18T12:22:48.884Z,2.80
2018-12-18T12:25:16.655Z,2.70
2018-12-18T12:27:50.413Z,2.80
2018-12-18T12:30:18.213Z,2.70
2018-12-18T12:32:46.240Z,2.50
2018-12-18T12:35:14.029Z,2.40
2018-12-18T12:37:42.357Z,2.30
2018-12-18T12:40:10.098Z,2.20
2018-12-18T12:42:37.982Z,2.10
2018-12-18T12:45:06.417Z,2.00
2018-12-18T12:47:34.063Z,1.90
2018-12-18T12:50:02.562Z,2.00
2018-12-18T12:52:30.572Z,2.00
2018-12-18T12:54:58.176Z,2.10
2018-12-18T12:57:26.000Z,2.10
2018-12-18T12:59:54.245Z,2.10
2018-12-18T13:02:22.271Z,2.00
2018-12-18T13:04:49.990Z,1.90
2018-12-18T13:07:17.973Z,2.00
2018-12-18T13:09:45.660Z,2.10
2018-12-18T13:12:13.408Z,2.00
2018-12-18T13:14:41.202Z,1.80
2018-12-18T13:17:09.001Z,1.70
2018-12-18T13:19:36.907Z,1.70
2018-12-18T13:22:04.454Z,1.90
2018-12-18T13:24:32.002Z,2.00
2018-12-18T13:26:59.602Z,1.80
2018-12-18T13:29:27.940Z,1.80
2018-12-18T13:31:55.989Z,1.90
2018-12-18T13:34:23.578Z,2.00
2018-12-18T13:36:51.279Z,2.00
2018-12-18T13:39:19.605Z,1.90
2018-12-18T13:41:47.704Z,1.90
2018-12-18T13:44:15.255Z,1.70
2018-12-18T13:46:43.035Z,1.80
2018-12-18T13:49:10.930Z,1.60
2018-12-18T13:51:39.007Z,1.60
2018-12-18T13:54:07.199Z,1.50
2018-12-18T13:56:34.775Z,1.50
2018-12-18T13:59:02.352Z,1.60
2018-12-18T14:01:30.190Z,1.50
2018-12-18T14:03:58.307Z,1.50
2018-12-18T14:06:26.047Z,1.50
2018-12-18T14:08:54.188Z,1.40
2018-12-18T14:11:22.447Z,1.50
2018-12-18T14:13:50.365Z,1.30
2018-12-18T14:16:18.196Z,1.40
2018-12-18T14:18:46.681Z,1.50
2018-12-18T14:21:14.752Z,1.40
2018-12-18T14:23:42.442Z,1.40
2018-12-18T14:26:10.037Z,1.30
2018-12-18T14:28:37.744Z,1.10
2018-12-18T14:31:06.423Z,1.10
2018-12-18T14:33:34.904Z,1.10
2018-12-18T14:36:02.768Z,1.20
2018-12-18T14:38:30.862Z,1.20
2018-12-18T14:40:58.623Z,1.10
2018-12-18T14:43:26.676Z,1.10
2018-12-18T14:45:54.576Z,1.10
2018-12-18T14:48:24.152Z,0.90
2018-12-18T14:50:53.258Z,1.00
2018-12-18T14:53:20.978Z,1.00
2018-12-18T14:55:48.597Z,1.00
2018-12-18T14:58:16.138Z,1.00
2018-12-18T15:00:44.162Z,0.80
2018-12-18T15:03:11.736Z,0.80
2018-12-18T15:05:40.241Z,0.70
2018-12-18T15:08:09.013Z,0.70
2018-12-18T15:10:38.583Z,0.70
2018-12-18T15:13:08.581Z,0.80
2018-12-18T15:15:36.587Z,0.70
2018-12-18T15:18:05.650Z,0.70
2018-12-18T15:20:34.321Z,0.60
2018-12-18T15:23:03.274Z,0.70
2018-12-18T15:25:31.322Z,0.70
2018-12-18T15:27:59.326Z,0.60
2018-12-18T15:30:26.886Z,0.60
2018-12-18T15:32:54.933Z,0.70
2018-12-18T15:35:23.017Z,0.70
2018-12-18T15:37:50.790Z,0.70
2018-12-18T15:40:18.832Z,0.80
2018-12-18T15:42:46.606Z,0.70
2018-12-18T15:45:14.431Z,0.70
2018-12-18T15:47:42.139Z,0.60
2018-12-18T15:50:09.775Z,0.60
2018-12-18T15:52:37.858Z,0.60
2018-12-18T15:55:05.454Z,0.60
2018-12-18T15:57:33.003Z,0.60
2018-12-18T16:00:00.555Z,0.50
2018-12-18T16:02:28.611Z,0.60
2018-12-18T16:04:56.256Z,0.60
2018-12-18T16:07:24.288Z,0.60
2018-12-18T16:09:52.342Z,0.60
2018-12-18T16:12:19.943Z,0.60
2018-12-18T16:14:49.313Z,0.50
2018-12-18T16:17:17.331Z,0.50
2018-12-18T16:19:45.199Z,0.50
2018-12-18T16:22:12.746Z,0.50
2018-12-18T16:24:40.520Z,0.60
2018-12-18T16:27:09.000Z,0.60
2018-12-18T16:29:36.903Z,0.60
2018-12-18T16:32:04.483Z,0.60
2018-12-18T16:34:32.192Z,0.60
2018-12-18T16:37:00.185Z,0.60
2018-12-18T16:39:30.810Z,0.50
2018-12-18T16:41:58.358Z,0.50
2018-12-18T16:44:26.122Z,0.40
2018-12-18T16:46:53.871Z,0.50
2018-12-18T16:49:21.439Z,0.50
2018-12-18T16:51:49.168Z,0.40
2018-12-18T16:54:16.984Z,0.50
2018-12-18T16:56:44.939Z,0.50
2018-12-18T16:59:12.888Z,0.40
2018-12-18T17:01:40.813Z,0.40
2018-12-18T17:04:08.609Z,0.40
2018-12-18T17:06:36.484Z,0.50
2018-12-18T17:09:06.694Z,0.50
2018-12-18T17:11:35.695Z,0.40
2018-12-18T17:14:03.327Z,0.30
2018-12-18T17:16:31.096Z,0.30
2018-12-18T17:18:58.898Z,0.40
2018-12-18T17:21:26.474Z,0.40
2018-12-18T17:23:54.536Z,0.30
2018-12-18T17:26:22.544Z,0.30
2018-12-18T17:28:50.086Z,0.20
2018-12-18T17:31:17.681Z,0.10
2018-12-18T17:33:45.258Z,0.00
2018-12-18T17:36:13.078Z,0.10
2018-12-18T17:38:40.987Z,0.00
2018-12-18T17:41:09.092Z,0.00
2018-12-18T17:43:37.747Z,-0.10
2018-12-18T17:46:05.813Z,-0.30
2018-12-18T17:48:33.366Z,-0.40
2018-12-18T17:51:01.327Z,-0.60
2018-12-18T17:53:29.102Z,-0.60
2018-12-18T17:55:56.651Z,-0.70
2018-12-18T17:58:24.632Z,-0.80
2018-12-18T18:00:52.251Z,-0.80
2018-12-18T18:03:19.837Z,-0.80
2018-12-18T18:05:48.331Z,-0.90
2018-12-18T18:08:16.195Z,-1.10
2018-12-18T18:10:43.739Z,-1.20
2018-12-18T18:13:11.799Z,-1.30
2018-12-18T18:15:40.200Z,-1.40
2018-12-18T18:18:07.904Z,-1.50
2018-12-18T18:20:35.725Z,-1.50
2018-12-18T18:23:03.693Z,-1.50
2018-12-18T18:25:31.495Z,-1.50
2018-12-18T18:27:59.529Z,-1.50
2018-12-18T18:30:27.887Z,-1.50
2018-12-18T18:32:55.754Z,-1.60
2018-12-18T18:35:23.442Z,-1.70
2018-12-18T18:37:51.256Z,-1.70
2018-12-18T18:40:20.010Z,-1.80
2018-12-18T18:42:47.890Z,-1.90
2018-12-18T18:45:15.467Z,-1.80
2018-12-18T18:47:43.519Z,-1.80
2018-12-18T18:50:11.795Z,-2.00
2018-12-18T18:52:39.418Z,-2.20
2018-12-18T18:55:08.070Z,-2.30
2018-12-18T18:57:35.630Z,-2.30
2018-12-18T19:00:04.032Z,-2.20
2018-12-18T19:02:31.766Z,-2.30
2018-12-18T19:04:59.557Z,-2.20
2018-12-18T19:07:27.836Z,-2.30
2018-12-18T19:09:55.844Z,-2.40
2018-12-18T19:12:23.563Z,-2.40
2018-12-18T19:14:51.178Z,-2.50
2018-12-18T19:17:19.090Z,-2.60
2018-12-18T19:19:46.887Z,-2.50
2018-12-18T19:22:15.566Z,-2.60
2018-12-18T19:24:43.436Z,-2.50
2018-12-18T19:27:11.380Z,-2.40
2018-12-18T19:29:39.403Z,-2.40
2018-12-18T19:32:07.694Z,-2.50
2018-12-18T19:34:35.991Z,-2.30
2018-12-18T19:37:04.468Z,-2.40
2018-12-18T19:39:34.515Z,-2.50
2018-12-18T19:42:02.657Z,-2.60
2018-12-18T19:44:31.502Z,-2.70
2018-12-18T19:46:59.176Z,-2.70
2018-12-18T19:49:26.924Z,-2.60
2018-12-18T19:51:55.692Z,-2.60
2018-12-18T19:54:23.853Z,-2.70
2018-12-18T19:56:52.105Z,-2.70
2018-12-18T19:59:19.767Z,-2.70
2018-12-18T20:01:47.351Z,-2.60
2018-12-18T20:04:15.126Z,-2.60
2018-12-18T20:06:42.722Z,-2.60
2018-12-18T20:09:10.459Z,-2.70
2018-12-18T20:11:38.475Z,-2.60
2018-12-18T20:16:34.103Z,-2.90
2018-12-18T20:19:02.278Z,-3.00
2018-12-18T20:23:57.905Z,-3.00
2018-12-18T20:26:25.873Z,-3.10
2018-12-18T20:28:53.534Z,-3.30
2018-12-18T20:31:21.604Z,-3.60
2018-12-18T20:33:49.376Z,-3.70
2018-12-18T20:36:16.959Z,-3.80
2018-12-18T20:38:44.525Z,-4.20
2018-12-18T20:41:12.273Z,-3.90
2018-12-18T20:43:40.319Z,-4.00
2018-12-18T20:46:08.111Z,-4.10
2018-12-18T20:51:03.737Z,-4.00
2018-12-18T20:53:31.296Z,-4.10
2018-12-18T20:55:59.106Z,-4.20
2018-12-18T20:58:26.876Z,-4.10
2018-12-18T21:00:54.591Z,-4.00
2018-12-18T21:03:22.423Z,-3.80
2018-12-18T21:05:50.074Z,-4.00
2018-12-18T21:08:23.164Z,-4.00
2018-12-18T21:10:47.486Z,-4.00
2018-12-18T21:13:20.946Z,-4.10
2018-12-18T21:15:48.505Z,-4.00
2018-12-18T21:18:16.057Z,-4.10
2018-12-18T21:20:43.870Z,-4.20
2018-12-18T21:23:11.436Z,-4.20
2018-12-18T21:25:38.983Z,-4.10
2018-12-18T21:28:06.709Z,-4.00
2018-12-18T21:30:34.295Z,-4.00
2018-12-18T21:33:13.115Z,-4.10
2018-12-18T21:35:40.955Z,-4.40
2018-12-18T21:38:08.523Z,-4.50
2018-12-18T21:40:36.132Z,-4.50
2018-12-18T21:43:03.732Z,-4.40
2018-12-18T21:45:31.381Z,-4.40
2018-12-18T21:47:59.184Z,-4.40
2018-12-18T21:50:26.737Z,-4.50
2018-12-18T21:52:54.285Z,-4.60
2018-12-18T21:55:21.878Z,-4.70
2018-12-18T21:57:49.424Z,-4.80
2018-12-18T22:00:17.189Z,-4.80
2018-12-18T22:02:45.142Z,-4.90
2018-12-18T22:05:12.882Z,-5.10
2018-12-18T22:07:40.454Z,-5.10
2018-12-18T22:10:08.194Z,-5.00
2018-12-18T22:12:36.351Z,-5.00
2018-12-18T22:15:04.225Z,-5.00
2018-12-18T22:17:32.039Z,-5.10
2018-12-18T22:19:59.737Z,-5.20
2018-12-18T22:22:27.461Z,-5.00
2018-12-18T22:24:55.054Z,-5.00
2018-12-18T22:27:22.602Z,-5.10
2018-12-18T22:29:50.139Z,-5.30
2018-12-18T22:32:17.869Z,-5.40
2018-12-18T22:34:45.411Z,-5.40
2018-12-18T22:37:14.397Z,-5.50
2018-12-18T22:39:42.199Z,-5.60
2018-12-18T22:42:09.816Z,-5.70
2018-12-18T22:44:37.609Z,-5.70
2018-12-18T22:47:05.194Z,-5.70
2018-12-18T22:49:32.755Z,-5.70
2018-12-18T22:52:00.421Z,-5.70
2018-12-18T22:54:28.007Z,-5.60
2018-12-18T22:56:55.554Z,-5.40
2018-12-18T22:59:23.102Z,-5.20
2018-12-18T23:01:51.018Z,-5.30
2018-12-18T23:04:18.962Z,-5.30
2018-12-18T23:06:46.609Z,-5.40
2018-12-18T23:09:14.799Z,-5.40
2018-12-18T23:11:42.342Z,-5.30
2018-12-18T23:14:09.895Z,-5.30
2018-12-18T23:16:37.666Z,-5.20
2018-12-18T23:19:05.215Z,-5.10
2018-12-18T23:21:32.754Z,-5.30
2018-12-18T23:24:00.627Z,-5.40
2018-12-18T23:26:28.172Z,-5.40
2018-12-18T23:28:55.733Z,-5.20
2018-12-18T23:31:23.335Z,-5.20
2018-12-18T23:33:50.883Z,-5.30
2018-12-18T23:36:18.426Z,-5.50
2018-12-18T23:38:46.150Z,-5.50
2018-12-18T23:41:13.747Z,-5.40
2018-12-18T23:43:41.658Z,-5.40
2018-12-18T23:46:09.362Z,-5.40
2018-12-18T23:48:39.815Z,-5.50
2018-12-18T23:51:06.687Z,-5.60
2018-12-18T23:53:34.284Z,-5.70
2018-12-18T23:56:01.839Z,-5.80
2018-12-18T23:58:29.420Z,-5.90
